sensor_id;sensor_type;location;lat;lon;timestamp;P1;durP1;ratioP1;P2;durP2;ratioP2
17253;SDS011;32542;52.832;13.816;2023-03-01T00:02:08;4.15;;;2.15;;
17253;SDS011;32542;52.832;13.816;2023-03-01T00:05:12;4.25;;;2.20;;
17253;SDS011;32542;52.832;13.816;2023-03-01T00:08:15;4.22;;;2.20;;
17253;SDS011;32542;52.832;13.816;2023-03-01T00:11:20;3.97;;;2.25;;
17253;SDS011;32542;52.832;13.816;2023-03-01T00:14:24;4.25;;;2.10;;
17253;SDS011;32542;52.832;13.816;2023-03-01T00:17:27;5.80;;;2.28;;
17253;SDS011;32542;52.832;13.816;2023-03-01T00:20:31;3.33;;;2.35;;
17253;SDS011;32542;52.832;13.816;2023-03-01T00:23:35;3.67;;;2.03;;
17253;SDS011;32542;52.832;13.816;2023-03-01T00:26:39;3.25;;;2.20;;
17253;SDS011;32542;52.832;13.816;2023-03-01T00:29:42;4.03;;;2.10;;
17253;SDS011;32542;52.832;13.816;2023-03-01T00:32:45;5.43;;;2.90;;
17253;SDS011;32542;52.832;13.816;2023-03-01T00:35:49;5.75;;;2.20;;
17253;SDS011;32542;52.832;13.816;2023-03-01T00:38:53;4.50;;;2.35;;
17253;SDS011;32542;52.832;13.816;2023-03-01T00:41:56;3.60;;;2.30;;
17253;SDS011;32542;52.832;13.816;2023-03-01T00:44:59;3.53;;;2.40;;
17253;SDS011;32542;52.832;13.816;2023-03-01T00:48:02;6.45;;;2.47;;
17253;SDS011;32542;52.832;13.816;2023-03-01T00:51:08;5.15;;;2.38;;
17253;SDS011;32542;52.832;13.816;2023-03-01T00:54:12;3.40;;;2.60;;
17253;SDS011;32542;52.832;13.816;2023-03-01T00:57:15;4.45;;;2.60;;
17253;SDS011;32542;52.832;13.816;2023-03-01T01:00:19;4.18;;;2.60;;
17253;SDS011;32542;52.832;13.816;2023-03-01T01:03:22;4.78;;;2.45;;
17253;SDS011;32542;52.832;13.816;2023-03-01T01:06:28;3.88;;;2.25;;
17253;SDS011;32542;52.832;13.816;2023-03-01T01:09:32;3.58;;;2.17;;
17253;SDS011;32542;52.832;13.816;2023-03-01T01:12:35;4.80;;;2.28;;
17253;SDS011;32542;52.832;13.816;2023-03-01T01:15:38;2.92;;;2.15;;
17253;SDS011;32542;52.832;13.816;2023-03-01T01:18:42;6.25;;;2.47;;
17253;SDS011;32542;52.832;13.816;2023-03-01T01:21:47;2.80;;;2.13;;
17253;SDS011;32542;52.832;13.816;2023-03-01T01:24:50;3.78;;;2.20;;
17253;SDS011;32542;52.832;13.816;2023-03-01T01:27:53;3.22;;;2.40;;
17253;SDS011;32542;52.832;13.816;2023-03-01T01:30:56;4.22;;;2.60;;
17253;SDS011;32542;52.832;13.816;2023-03-01T01:34:00;3.55;;;2.20;;
17253;SDS011;32542;52.832;13.816;2023-03-01T01:37:06;5.93;;;2.42;;
17253;SDS011;32542;52.832;13.816;2023-03-01T01:40:10;6.15;;;2.67;;
17253;SDS011;32542;52.832;13.816;2023-03-01T01:43:16;3.72;;;2.50;;
17253;SDS011;32542;52.832;13.816;2023-03-01T01:46:24;3.28;;;2.42;;
17253;SDS011;32542;52.832;13.816;2023-03-01T01:49:32;4.25;;;2.35;;
17253;SDS011;32542;52.832;13.816;2023-03-01T01:52:41;4.60;;;2.42;;
17253;SDS011;32542;52.832;13.816;2023-03-01T01:55:45;3.33;;;2.50;;
17253;SDS011;32542;52.832;13.816;2023-03-01T01:58:51;3.85;;;2.42;;
17253;SDS011;32542;52.832;13.816;2023-03-01T02:01:55;2.50;;;2.10;;
17253;SDS011;32542;52.832;13.816;2023-03-01T02:05:03;4.63;;;2.30;;
17253;SDS011;32542;52.832;13.816;2023-03-01T02:08:14;3.20;;;2.22;;
17253;SDS011;32542;52.832;13.816;2023-03-01T02:11:20;3.20;;;2.20;;
17253;SDS011;32542;52.832;13.816;2023-03-01T02:14:24;7.30;;;2.40;;
17253;SDS011;32542;52.832;13.816;2023-03-01T02:17:27;4.55;;;2.50;;
17253;SDS011;32542;52.832;13.816;2023-03-01T02:20:33;3.97;;;2.75;;
17253;SDS011;32542;52.832;13.816;2023-03-01T02:23:42;4.38;;;2.35;;
17253;SDS011;32542;52.832;13.816;2023-03-01T02:26:48;3.25;;;2.38;;
17253;SDS011;32542;52.832;13.816;2023-03-01T02:29:55;4.68;;;2.20;;
17253;SDS011;32542;52.832;13.816;2023-03-01T02:32:58;3.75;;;2.38;;
17253;SDS011;32542;52.832;13.816;2023-03-01T02:36:06;5.20;;;2.60;;
17253;SDS011;32542;52.832;13.816;2023-03-01T02:39:14;4.18;;;2.55;;
17253;SDS011;32542;52.832;13.816;2023-03-01T02:42:20;3.75;;;2.30;;
17253;SDS011;32542;52.832;13.816;2023-03-01T02:45:29;3.25;;;2.30;;
17253;SDS011;32542;52.832;13.816;2023-03-01T02:48:40;3.05;;;2.30;;
17253;SDS011;32542;52.832;13.816;2023-03-01T02:51:45;4.68;;;2.53;;
17253;SDS011;32542;52.832;13.816;2023-03-01T02:54:59;3.42;;;2.10;;
17253;SDS011;32542;52.832;13.816;2023-03-01T02:58:05;3.50;;;2.55;;
17253;SDS011;32542;52.832;13.816;2023-03-01T03:01:11;3.58;;;2.30;;
17253;SDS011;32542;52.832;13.816;2023-03-01T03:04:17;3.45;;;2.25;;
17253;SDS011;32542;52.832;13.816;2023-03-01T03:07:23;2.38;;;2.00;;
17253;SDS011;32542;52.832;13.816;2023-03-01T03:10:27;3.13;;;2.20;;
17253;SDS011;32542;52.832;13.816;2023-03-01T03:13:32;4.00;;;2.38;;
17253;SDS011;32542;52.832;13.816;2023-03-01T03:16:36;3.67;;;2.50;;
17253;SDS011;32542;52.832;13.816;2023-03-01T03:19:39;3.55;;;2.30;;
17253;SDS011;32542;52.832;13.816;2023-03-01T03:22:42;3.05;;;2.40;;
17253;SDS011;32542;52.832;13.816;2023-03-01T03:25:47;4.13;;;2.30;;
17253;SDS011;32542;52.832;13.816;2023-03-01T03:28:50;3.10;;;2.33;;
17253;SDS011;32542;52.832;13.816;2023-03-01T03:31:55;3.50;;;2.22;;
17253;SDS011;32542;52.832;13.816;2023-03-01T03:34:58;3.15;;;2.30;;
17253;SDS011;32542;52.832;13.816;2023-03-01T03:38:01;2.50;;;2.00;;
17253;SDS011;32542;52.832;13.816;2023-03-01T03:41:08;3.70;;;2.40;;
17253;SDS011;32542;52.832;13.816;2023-03-01T03:44:10;3.40;;;2.22;;
17253;SDS011;32542;52.832;13.816;2023-03-01T03:47:15;3.28;;;1.98;;
17253;SDS011;32542;52.832;13.816;2023-03-01T03:50:18;3.35;;;2.10;;
17253;SDS011;32542;52.832;13.816;2023-03-01T03:53:22;2.75;;;2.17;;
17253;SDS011;32542;52.832;13.816;2023-03-01T03:56:27;3.53;;;2.45;;
17253;SDS011;32542;52.832;13.816;2023-03-01T03:59:30;3.15;;;2.13;;
17253;SDS011;32542;52.832;13.816;2023-03-01T04:02:35;3.03;;;2.35;;
17253;SDS011;32542;52.832;13.816;2023-03-01T04:05:38;3.15;;;2.45;;
17253;SDS011;32542;52.832;13.816;2023-03-01T04:08:42;3.33;;;2.42;;
17253;SDS011;32542;52.832;13.816;2023-03-01T04:11:45;3.33;;;2.40;;
17253;SDS011;32542;52.832;13.816;2023-03-01T04:14:48;2.70;;;2.20;;
17253;SDS011;32542;52.832;13.816;2023-03-01T04:17:53;2.65;;;2.17;;
17253;SDS011;32542;52.832;13.816;2023-03-01T04:20:57;4.30;;;2.50;;
17253;SDS011;32542;52.832;13.816;2023-03-01T04:24:00;3.17;;;2.10;;
17253;SDS011;32542;52.832;13.816;2023-03-01T04:27:05;3.50;;;2.53;;
17253;SDS011;32542;52.832;13.816;2023-03-01T04:30:08;3.83;;;2.35;;
17253;SDS011;32542;52.832;13.816;2023-03-01T04:33:13;3.38;;;2.00;;
17253;SDS011;32542;52.832;13.816;2023-03-01T04:36:16;2.65;;;2.08;;
17253;SDS011;32542;52.832;13.816;2023-03-01T04:39:21;3.10;;;2.13;;
17253;SDS011;32542;52.832;13.816;2023-03-01T04:42:24;3.17;;;2.40;;
17253;SDS011;32542;52.832;13.816;2023-03-01T04:45:27;3.40;;;2.20;;
17253;SDS011;32542;52.832;13.816;2023-03-01T04:48:31;2.88;;;2.15;;
17253;SDS011;32542;52.832;13.816;2023-03-01T04:51:35;2.95;;;2.05;;
17253;SDS011;32542;52.832;13.816;2023-03-01T04:54:38;2.70;;;2.30;;
17253;SDS011;32542;52.832;13.816;2023-03-01T04:57:41;2.25;;;2.00;;
17253;SDS011;32542;52.832;13.816;2023-03-01T05:00:44;2.88;;;2.40;;
17253;SDS011;32542;52.832;13.816;2023-03-01T05:03:49;3.38;;;2.30;;
17253;SDS011;32542;52.832;13.816;2023-03-01T05:06:53;3.08;;;2.10;;
17253;SDS011;32542;52.832;13.816;2023-03-01T05:09:57;4.00;;;2.40;;
17253;SDS011;32542;52.832;13.816;2023-03-01T05:13:00;4.05;;;2.10;;
17253;SDS011;32542;52.832;13.816;2023-03-01T05:16:04;3.10;;;2.40;;
17253;SDS011;32542;52.832;13.816;2023-03-01T05:19:14;3.33;;;2.20;;
17253;SDS011;32542;52.832;13.816;2023-03-01T05:22:17;3.22;;;2.35;;
17253;SDS011;32542;52.832;13.816;2023-03-01T05:25:20;2.90;;;2.40;;
17253;SDS011;32542;52.832;13.816;2023-03-01T05:28:23;4.13;;;2.30;;
17253;SDS011;32542;52.832;13.816;2023-03-01T05:31:26;3.90;;;2.45;;
17253;SDS011;32542;52.832;13.816;2023-03-01T05:34:34;3.33;;;2.28;;
17253;SDS011;32542;52.832;13.816;2023-03-01T05:37:39;4.05;;;2.83;;
17253;SDS011;32542;52.832;13.816;2023-03-01T05:40:46;3.80;;;2.67;;
17253;SDS011;32542;52.832;13.816;2023-03-01T05:43:50;4.43;;;2.70;;
17253;SDS011;32542;52.832;13.816;2023-03-01T05:46:53;6.68;;;2.92;;
17253;SDS011;32542;52.832;13.816;2023-03-01T05:49:57;6.22;;;2.80;;
17253;SDS011;32542;52.832;13.816;2023-03-01T05:53:02;4.03;;;2.85;;
17253;SDS011;32542;52.832;13.816;2023-03-01T05:56:09;4.78;;;2.80;;
17253;SDS011;32542;52.832;13.816;2023-03-01T05:59:12;5.10;;;2.80;;
17253;SDS011;32542;52.832;13.816;2023-03-01T06:02:17;6.60;;;3.35;;
17253;SDS011;32542;52.832;13.816;2023-03-01T06:05:22;6.28;;;3.20;;
17253;SDS011;32542;52.832;13.816;2023-03-01T06:08:25;5.05;;;3.05;;
17253;SDS011;32542;52.832;13.816;2023-03-01T06:11:29;5.25;;;3.53;;
17253;SDS011;32542;52.832;13.816;2023-03-01T06:14:32;6.20;;;3.47;;
17253;SDS011;32542;52.832;13.816;2023-03-01T06:17:35;6.50;;;3.70;;
17253;SDS011;32542;52.832;13.816;2023-03-01T06:20:40;5.95;;;3.80;;
17253;SDS011;32542;52.832;13.816;2023-03-01T06:23:43;6.32;;;3.55;;
17253;SDS011;32542;52.832;13.816;2023-03-01T06:26:47;6.88;;;3.72;;
17253;SDS011;32542;52.832;13.816;2023-03-01T06:29:50;7.25;;;4.25;;
17253;SDS011;32542;52.832;13.816;2023-03-01T06:32:53;6.28;;;3.92;;
17253;SDS011;32542;52.832;13.816;2023-03-01T06:36:04;6.07;;;3.63;;
17253;SDS011;32542;52.832;13.816;2023-03-01T06:39:07;9.48;;;4.20;;
17253;SDS011;32542;52.832;13.816;2023-03-01T06:42:10;5.93;;;3.60;;
17253;SDS011;32542;52.832;13.816;2023-03-01T06:45:13;6.38;;;3.75;;
17253;SDS011;32542;52.832;13.816;2023-03-01T06:48:16;6.90;;;4.00;;
17253;SDS011;32542;52.832;13.816;2023-03-01T06:51:21;6.75;;;3.90;;
17253;SDS011;32542;52.832;13.816;2023-03-01T06:54:24;6.10;;;3.67;;
17253;SDS011;32542;52.832;13.816;2023-03-01T06:57:27;8.40;;;3.95;;
17253;SDS011;32542;52.832;13.816;2023-03-01T07:00:30;11.55;;;4.05;;
17253;SDS011;32542;52.832;13.816;2023-03-01T07:03:33;12.27;;;4.40;;
17253;SDS011;32542;52.832;13.816;2023-03-01T07:06:38;7.63;;;3.97;;
17253;SDS011;32542;52.832;13.816;2023-03-01T07:09:41;8.82;;;3.95;;
17253;SDS011;32542;52.832;13.816;2023-03-01T07:12:44;9.77;;;4.00;;
17253;SDS011;32542;52.832;13.816;2023-03-01T07:15:47;8.40;;;4.07;;
17253;SDS011;32542;52.832;13.816;2023-03-01T07:18:50;14.25;;;4.25;;
17253;SDS011;32542;52.832;13.816;2023-03-01T07:21:55;9.63;;;4.63;;
17253;SDS011;32542;52.832;13.816;2023-03-01T07:24:58;16.50;;;5.03;;
17253;SDS011;32542;52.832;13.816;2023-03-01T07:28:01;10.63;;;4.40;;
17253;SDS011;32542;52.832;13.816;2023-03-01T07:31:04;9.50;;;4.38;;
17253;SDS011;32542;52.832;13.816;2023-03-01T07:34:08;9.10;;;4.35;;
17253;SDS011;32542;52.832;13.816;2023-03-01T07:37:13;16.05;;;5.40;;
17253;SDS011;32542;52.832;13.816;2023-03-01T07:40:16;11.13;;;4.25;;
17253;SDS011;32542;52.832;13.816;2023-03-01T07:43:19;16.45;;;4.50;;
17253;SDS011;32542;52.832;13.816;2023-03-01T07:46:22;10.52;;;4.20;;
17253;SDS011;32542;52.832;13.816;2023-03-01T07:49:25;10.95;;;4.45;;
17253;SDS011;32542;52.832;13.816;2023-03-01T07:52:30;10.27;;;4.05;;
17253;SDS011;32542;52.832;13.816;2023-03-01T07:55:33;9.43;;;4.45;;
17253;SDS011;32542;52.832;13.816;2023-03-01T07:58:36;9.90;;;4.45;;
17253;SDS011;32542;52.832;13.816;2023-03-01T08:01:39;13.05;;;4.45;;
17253;SDS011;32542;52.832;13.816;2023-03-01T08:04:42;14.15;;;4.63;;
17253;SDS011;32542;52.832;13.816;2023-03-01T08:07:47;9.73;;;4.18;;
17253;SDS011;32542;52.832;13.816;2023-03-01T08:10:50;8.43;;;4.13;;
17253;SDS011;32542;52.832;13.816;2023-03-01T08:13:53;7.85;;;3.70;;
17253;SDS011;32542;52.832;13.816;2023-03-01T08:16:56;12.38;;;4.53;;
17253;SDS011;32542;52.832;13.816;2023-03-01T08:19:59;8.82;;;3.97;;
17253;SDS011;32542;52.832;13.816;2023-03-01T08:23:03;10.02;;;4.28;;
17253;SDS011;32542;52.832;13.816;2023-03-01T08:26:07;7.90;;;4.30;;
17253;SDS011;32542;52.832;13.816;2023-03-01T08:29:11;7.32;;;4.15;;
17253;SDS011;32542;52.832;13.816;2023-03-01T08:32:14;7.03;;;4.05;;
17253;SDS011;32542;52.832;13.816;2023-03-01T08:35:18;8.50;;;3.80;;
17253;SDS011;32542;52.832;13.816;2023-03-01T08:38:23;7.57;;;3.97;;
17253;SDS011;32542;52.832;13.816;2023-03-01T08:41:27;7.65;;;3.97;;
17253;SDS011;32542;52.832;13.816;2023-03-01T08:44:30;9.00;;;4.10;;
17253;SDS011;32542;52.832;13.816;2023-03-01T08:47:33;6.53;;;4.03;;
17253;SDS011;32542;52.832;13.816;2023-03-01T08:50:36;7.68;;;3.97;;
17253;SDS011;32542;52.832;13.816;2023-03-01T08:53:41;8.80;;;4.38;;
17253;SDS011;32542;52.832;13.816;2023-03-01T08:56:44;8.55;;;3.83;;
17253;SDS011;32542;52.832;13.816;2023-03-01T08:59:47;7.40;;;3.72;;
17253;SDS011;32542;52.832;13.816;2023-03-01T09:02:50;7.20;;;3.90;;
17253;SDS011;32542;52.832;13.816;2023-03-01T09:05:53;8.00;;;3.85;;
17253;SDS011;32542;52.832;13.816;2023-03-01T09:09:04;11.80;;;4.13;;
17253;SDS011;32542;52.832;13.816;2023-03-01T09:12:08;5.63;;;3.65;;
17253;SDS011;32542;52.832;13.816;2023-03-01T09:15:11;7.32;;;3.92;;
17253;SDS011;32542;52.832;13.816;2023-03-01T09:18:13;6.82;;;4.20;;
17253;SDS011;32542;52.832;13.816;2023-03-01T09:21:17;5.05;;;3.50;;
17253;SDS011;32542;52.832;13.816;2023-03-01T09:24:41;8.15;;;3.60;;
17253;SDS011;32542;52.832;13.816;2023-03-01T09:27:44;8.38;;;3.47;;
17253;SDS011;32542;52.832;13.816;2023-03-01T09:30:47;7.65;;;3.90;;
17253;SDS011;32542;52.832;13.816;2023-03-01T09:33:50;8.25;;;3.80;;
17253;SDS011;32542;52.832;13.816;2023-03-01T09:36:54;8.75;;;3.60;;
17253;SDS011;32542;52.832;13.816;2023-03-01T09:40:03;6.28;;;3.67;;
17253;SDS011;32542;52.832;13.816;2023-03-01T09:43:07;9.30;;;3.80;;
17253;SDS011;32542;52.832;13.816;2023-03-01T09:46:21;5.40;;;3.22;;
17253;SDS011;32542;52.832;13.816;2023-03-01T09:49:26;5.45;;;3.45;;
17253;SDS011;32542;52.832;13.816;2023-03-01T09:52:33;9.73;;;3.58;;
17253;SDS011;32542;52.832;13.816;2023-03-01T09:55:44;5.75;;;3.20;;
17253;SDS011;32542;52.832;13.816;2023-03-01T09:58:51;6.30;;;3.22;;
17253;SDS011;32542;52.832;13.816;2023-03-01T10:01:59;8.38;;;3.72;;
17253;SDS011;32542;52.832;13.816;2023-03-01T10:05:19;5.47;;;3.38;;
17253;SDS011;32542;52.832;13.816;2023-03-01T10:08:34;7.40;;;3.55;;
17253;SDS011;32542;52.832;13.816;2023-03-01T10:11:45;6.63;;;3.47;;
17253;SDS011;32542;52.832;13.816;2023-03-01T10:14:53;4.88;;;3.20;;
17253;SDS011;32542;52.832;13.816;2023-03-01T10:18:01;6.15;;;3.53;;
17253;SDS011;32542;52.832;13.816;2023-03-01T10:21:12;5.82;;;3.67;;
17253;SDS011;32542;52.832;13.816;2023-03-01T10:24:18;4.50;;;2.90;;
17253;SDS011;32542;52.832;13.816;2023-03-01T10:27:24;5.50;;;3.05;;
17253;SDS011;32542;52.832;13.816;2023-03-01T10:30:29;5.15;;;3.58;;
17253;SDS011;32542;52.832;13.816;2023-03-01T10:33:37;6.95;;;3.03;;
17253;SDS011;32542;52.832;13.816;2023-03-01T10:36:42;7.40;;;3.45;;
17253;SDS011;32542;52.832;13.816;2023-03-01T10:39:56;6.40;;;3.30;;
17253;SDS011;32542;52.832;13.816;2023-03-01T10:43:02;6.38;;;3.20;;
17253;SDS011;32542;52.832;13.816;2023-03-01T10:46:14;6.70;;;3.08;;
17253;SDS011;32542;52.832;13.816;2023-03-01T10:49:25;6.35;;;3.67;;
17253;SDS011;32542;52.832;13.816;2023-03-01T10:52:32;10.30;;;3.20;;
17253;SDS011;32542;52.832;13.816;2023-03-01T10:55:37;9.77;;;3.97;;
17253;SDS011;32542;52.832;13.816;2023-03-01T10:58:57;6.38;;;3.20;;
17253;SDS011;32542;52.832;13.816;2023-03-01T11:02:07;5.22;;;2.88;;
17253;SDS011;32542;52.832;13.816;2023-03-01T11:05:26;14.10;;;3.47;;
17253;SDS011;32542;52.832;13.816;2023-03-01T11:08:36;10.23;;;2.97;;
17253;SDS011;32542;52.832;13.816;2023-03-01T11:11:41;7.55;;;3.45;;
17253;SDS011;32542;52.832;13.816;2023-03-01T11:14:49;9.77;;;3.10;;
17253;SDS011;32542;52.832;13.816;2023-03-01T11:17:55;9.50;;;3.50;;
17253;SDS011;32542;52.832;13.816;2023-03-01T11:21:14;6.60;;;3.10;;
17253;SDS011;32542;52.832;13.816;2023-03-01T11:24:18;8.43;;;3.38;;
17253;SDS011;32542;52.832;13.816;2023-03-01T11:27:23;6.15;;;3.10;;
17253;SDS011;32542;52.832;13.816;2023-03-01T11:30:30;8.55;;;3.45;;
17253;SDS011;32542;52.832;13.816;2023-03-01T11:33:39;13.82;;;4.10;;
17253;SDS011;32542;52.832;13.816;2023-03-01T11:36:48;8.95;;;3.20;;
17253;SDS011;32542;52.832;13.816;2023-03-01T11:39:58;4.97;;;2.95;;
17253;SDS011;32542;52.832;13.816;2023-03-01T11:43:09;15.18;;;3.40;;
17253;SDS011;32542;52.832;13.816;2023-03-01T11:53:28;11.55;;;3.40;;
17253;SDS011;32542;52.832;13.816;2023-03-01T11:56:40;9.73;;;3.53;;
17253;SDS011;32542;52.832;13.816;2023-03-01T11:59:54;8.50;;;3.50;;
17253;SDS011;32542;52.832;13.816;2023-03-01T12:06:50;11.27;;;3.42;;
17253;SDS011;32542;52.832;13.816;2023-03-01T12:10:02;5.50;;;2.72;;
17253;SDS011;32542;52.832;13.816;2023-03-01T12:13:26;6.35;;;2.95;;
17253;SDS011;32542;52.832;13.816;2023-03-01T12:16:52;5.90;;;3.40;;
17253;SDS011;32542;52.832;13.816;2023-03-01T12:20:11;9.80;;;3.20;;
17253;SDS011;32542;52.832;13.816;2023-03-01T12:23:37;7.05;;;3.00;;
17253;SDS011;32542;52.832;13.816;2023-03-01T12:27:06;7.82;;;2.90;;
17253;SDS011;32542;52.832;13.816;2023-03-01T12:30:21;8.23;;;3.20;;
17253;SDS011;32542;52.832;13.816;2023-03-01T12:33:35;5.47;;;2.75;;
17253;SDS011;32542;52.832;13.816;2023-03-01T12:36:51;4.88;;;2.53;;
17253;SDS011;32542;52.832;13.816;2023-03-01T12:40:13;9.15;;;3.45;;
17253;SDS011;32542;52.832;13.816;2023-03-01T12:43:32;5.55;;;2.80;;
17253;SDS011;32542;52.832;13.816;2023-03-01T12:46:47;5.20;;;2.60;;
17253;SDS011;32542;52.832;13.816;2023-03-01T12:49:57;5.53;;;2.80;;
17253;SDS011;32542;52.832;13.816;2023-03-01T12:53:07;7.35;;;2.70;;
17253;SDS011;32542;52.832;13.816;2023-03-01T12:56:23;6.60;;;2.70;;
17253;SDS011;32542;52.832;13.816;2023-03-01T12:59:31;6.60;;;2.38;;
17253;SDS011;32542;52.832;13.816;2023-03-01T13:02:40;9.38;;;2.67;;
17253;SDS011;32542;52.832;13.816;2023-03-01T13:05:55;5.47;;;2.80;;
17253;SDS011;32542;52.832;13.816;2023-03-01T13:09:08;4.65;;;2.50;;
17253;SDS011;32542;52.832;13.816;2023-03-01T13:15:44;5.82;;;2.60;;
17253;SDS011;32542;52.832;13.816;2023-03-01T13:18:49;4.75;;;2.80;;
17253;SDS011;32542;52.832;13.816;2023-03-01T13:21:52;5.35;;;2.40;;
17253;SDS011;32542;52.832;13.816;2023-03-01T13:25:12;4.30;;;2.70;;
17253;SDS011;32542;52.832;13.816;2023-03-01T13:31:57;4.95;;;2.65;;
17253;SDS011;32542;52.832;13.816;2023-03-01T13:35:29;4.50;;;2.55;;
17253;SDS011;32542;52.832;13.816;2023-03-01T13:38:46;5.22;;;2.20;;
17253;SDS011;32542;52.832;13.816;2023-03-01T13:41:52;3.75;;;2.28;;
17253;SDS011;32542;52.832;13.816;2023-03-01T13:44:56;3.67;;;2.20;;
17253;SDS011;32542;52.832;13.816;2023-03-01T13:48:01;4.00;;;2.10;;
17253;SDS011;32542;52.832;13.816;2023-03-01T13:51:10;5.45;;;2.47;;
17253;SDS011;32542;52.832;13.816;2023-03-01T13:54:15;4.00;;;2.47;;
17253;SDS011;32542;52.832;13.816;2023-03-01T13:57:24;5.70;;;2.85;;
17253;SDS011;32542;52.832;13.816;2023-03-01T14:00:33;5.35;;;2.30;;
17253;SDS011;32542;52.832;13.816;2023-03-01T14:03:40;6.45;;;2.42;;
17253;SDS011;32542;52.832;13.816;2023-03-01T14:06:44;4.65;;;2.47;;
17253;SDS011;32542;52.832;13.816;2023-03-01T14:09:47;4.68;;;2.20;;
17253;SDS011;32542;52.832;13.816;2023-03-01T14:12:57;6.10;;;2.33;;
17253;SDS011;32542;52.832;13.816;2023-03-01T14:16:20;3.97;;;2.30;;
17253;SDS011;32542;52.832;13.816;2023-03-01T14:19:32;3.53;;;2.20;;
17253;SDS011;32542;52.832;13.816;2023-03-01T14:22:36;5.47;;;2.30;;
17253;SDS011;32542;52.832;13.816;2023-03-01T14:25:46;3.97;;;2.40;;
17253;SDS011;32542;52.832;13.816;2023-03-01T14:28:52;4.60;;;2.60;;
17253;SDS011;32542;52.832;13.816;2023-03-01T14:32:01;5.15;;;2.58;;
17253;SDS011;32542;52.832;13.816;2023-03-01T14:35:19;6.80;;;2.90;;
17253;SDS011;32542;52.832;13.816;2023-03-01T14:38:29;4.53;;;2.30;;
17253;SDS011;32542;52.832;13.816;2023-03-01T14:41:36;4.30;;;2.13;;
17253;SDS011;32542;52.832;13.816;2023-03-01T14:44:41;3.08;;;1.88;;
17253;SDS011;32542;52.832;13.816;2023-03-01T14:47:45;4.30;;;2.28;;
17253;SDS011;32542;52.832;13.816;2023-03-01T14:50:50;4.22;;;2.22;;
17253;SDS011;32542;52.832;13.816;2023-03-01T14:53:53;3.17;;;1.98;;
17253;SDS011;32542;52.832;13.816;2023-03-01T14:56:58;3.15;;;2.17;;
17253;SDS011;32542;52.832;13.816;2023-03-01T15:00:05;4.50;;;2.15;;
17253;SDS011;32542;52.832;13.816;2023-03-01T15:03:11;4.57;;;2.28;;
17253;SDS011;32542;52.832;13.816;2023-03-01T15:06:22;3.80;;;2.00;;
17253;SDS011;32542;52.832;13.816;2023-03-01T15:09:25;3.92;;;2.45;;
17253;SDS011;32542;52.832;13.816;2023-03-01T15:12:35;5.00;;;2.00;;
17253;SDS011;32542;52.832;13.816;2023-03-01T15:15:42;3.20;;;1.98;;
17253;SDS011;32542;52.832;13.816;2023-03-01T15:18:48;3.05;;;2.05;;
17253;SDS011;32542;52.832;13.816;2023-03-01T15:21:53;2.75;;;1.85;;
17253;SDS011;32542;52.832;13.816;2023-03-01T15:24:56;3.78;;;2.20;;
17253;SDS011;32542;52.832;13.816;2023-03-01T15:28:00;2.95;;;1.80;;
17253;SDS011;32542;52.832;13.816;2023-03-01T15:31:06;4.65;;;2.10;;
17253;SDS011;32542;52.832;13.816;2023-03-01T15:34:21;3.53;;;1.77;;
17253;SDS011;32542;52.832;13.816;2023-03-01T15:37:37;4.40;;;2.00;;
17253;SDS011;32542;52.832;13.816;2023-03-01T15:40:48;4.13;;;1.90;;
17253;SDS011;32542;52.832;13.816;2023-03-01T15:43:52;2.75;;;2.00;;
17253;SDS011;32542;52.832;13.816;2023-03-01T15:46:58;3.17;;;1.90;;
17253;SDS011;32542;52.832;13.816;2023-03-01T15:50:01;4.32;;;2.35;;
17253;SDS011;32542;52.832;13.816;2023-03-01T15:53:05;3.08;;;1.83;;
17253;SDS011;32542;52.832;13.816;2023-03-01T15:56:12;2.90;;;1.75;;
17253;SDS011;32542;52.832;13.816;2023-03-01T15:59:15;2.28;;;1.60;;
17253;SDS011;32542;52.832;13.816;2023-03-01T16:02:21;4.10;;;2.00;;
17253;SDS011;32542;52.832;13.816;2023-03-01T16:05:25;4.47;;;1.95;;
17253;SDS011;32542;52.832;13.816;2023-03-01T16:08:29;5.53;;;1.92;;
17253;SDS011;32542;52.832;13.816;2023-03-01T16:11:32;3.40;;;1.80;;
17253;SDS011;32542;52.832;13.816;2023-03-01T16:14:37;5.00;;;2.70;;
17253;SDS011;32542;52.832;13.816;2023-03-01T16:17:42;4.53;;;2.10;;
17253;SDS011;32542;52.832;13.816;2023-03-01T16:20:45;3.15;;;1.88;;
17253;SDS011;32542;52.832;13.816;2023-03-01T16:23:49;3.95;;;1.70;;
17253;SDS011;32542;52.832;13.816;2023-03-01T16:26:53;3.58;;;2.08;;
17253;SDS011;32542;52.832;13.816;2023-03-01T16:29:56;4.10;;;2.70;;
17253;SDS011;32542;52.832;13.816;2023-03-01T16:33:01;4.32;;;2.53;;
17253;SDS011;32542;52.832;13.816;2023-03-01T16:36:26;8.20;;;2.90;;
17253;SDS011;32542;52.832;13.816;2023-03-01T16:39:30;5.07;;;2.22;;
17253;SDS011;32542;52.832;13.816;2023-03-01T16:42:33;5.32;;;2.50;;
17253;SDS011;32542;52.832;13.816;2023-03-01T16:45:41;8.98;;;2.33;;
17253;SDS011;32542;52.832;13.816;2023-03-01T16:48:47;6.10;;;2.20;;
17253;SDS011;32542;52.832;13.816;2023-03-01T16:51:52;5.70;;;2.42;;
17253;SDS011;32542;52.832;13.816;2023-03-01T16:54:56;5.00;;;2.42;;
17253;SDS011;32542;52.832;13.816;2023-03-01T16:57:59;5.55;;;2.17;;
17253;SDS011;32542;52.832;13.816;2023-03-01T17:01:06;6.22;;;2.30;;
17253;SDS011;32542;52.832;13.816;2023-03-01T17:04:11;5.63;;;2.10;;
17253;SDS011;32542;52.832;13.816;2023-03-01T17:07:15;4.82;;;2.30;;
17253;SDS011;32542;52.832;13.816;2023-03-01T17:10:18;3.83;;;2.10;;
17253;SDS011;32542;52.832;13.816;2023-03-01T17:13:22;5.80;;;2.80;;
17253;SDS011;32542;52.832;13.816;2023-03-01T17:16:25;5.32;;;2.20;;
17253;SDS011;32542;52.832;13.816;2023-03-01T17:19:30;5.00;;;2.22;;
17253;SDS011;32542;52.832;13.816;2023-03-01T17:22:33;3.25;;;2.00;;
17253;SDS011;32542;52.832;13.816;2023-03-01T17:25:37;2.85;;;2.05;;
17253;SDS011;32542;52.832;13.816;2023-03-01T17:28:45;5.32;;;2.30;;
17253;SDS011;32542;52.832;13.816;2023-03-01T17:31:52;3.80;;;2.30;;
17253;SDS011;32542;52.832;13.816;2023-03-01T17:34:57;4.90;;;2.25;;
17253;SDS011;32542;52.832;13.816;2023-03-01T17:38:00;3.63;;;2.50;;
17253;SDS011;32542;52.832;13.816;2023-03-01T17:41:03;4.80;;;2.33;;
17253;SDS011;32542;52.832;13.816;2023-03-01T17:44:06;2.53;;;1.80;;
17253;SDS011;32542;52.832;13.816;2023-03-01T17:47:09;3.10;;;2.08;;
17253;SDS011;32542;52.832;13.816;2023-03-01T17:50:14;5.50;;;2.20;;
17253;SDS011;32542;52.832;13.816;2023-03-01T17:53:18;2.97;;;2.17;;
17253;SDS011;32542;52.832;13.816;2023-03-01T17:56:21;3.33;;;1.85;;
17253;SDS011;32542;52.832;13.816;2023-03-01T17:59:24;4.85;;;2.30;;
17253;SDS011;32542;52.832;13.816;2023-03-01T18:02:31;5.95;;;2.10;;
17253;SDS011;32542;52.832;13.816;2023-03-01T18:05:35;4.45;;;2.30;;
17253;SDS011;32542;52.832;13.816;2023-03-01T18:08:39;2.47;;;1.65;;
17253;SDS011;32542;52.832;13.816;2023-03-01T18:11:42;4.53;;;1.73;;
17253;SDS011;32542;52.832;13.816;2023-03-01T18:14:48;6.80;;;1.95;;
17253;SDS011;32542;52.832;13.816;2023-03-01T18:17:53;3.92;;;1.90;;
17253;SDS011;32542;52.832;13.816;2023-03-01T18:20:58;3.33;;;2.08;;
17253;SDS011;32542;52.832;13.816;2023-03-01T18:24:02;4.30;;;1.90;;
17253;SDS011;32542;52.832;13.816;2023-03-01T18:27:05;2.53;;;1.58;;
17253;SDS011;32542;52.832;13.816;2023-03-01T18:30:09;3.85;;;1.75;;
17253;SDS011;32542;52.832;13.816;2023-03-01T18:33:13;6.35;;;1.98;;
17253;SDS011;32542;52.832;13.816;2023-03-01T18:36:21;4.40;;;2.33;;
17253;SDS011;32542;52.832;13.816;2023-03-01T18:39:25;5.50;;;1.88;;
17253;SDS011;32542;52.832;13.816;2023-03-01T18:42:28;5.00;;;2.45;;